createdAt,value
2022-08-28T00:00:41.846Z,99982.66
2022-08-28T00:03:44.710Z,99999.88
2022-08-28T00:06:47.345Z,99999.09
2022-08-28T00:09:50.116Z,99997.44
2022-08-28T00:12:55.777Z,99991.34
2022-08-28T00:16:01.125Z,100000.63
2022-08-28T00:19:04.656Z,100001.41
2022-08-28T00:22:07.651Z,99991.34
2022-08-28T00:25:11.883Z,99992.91
2022-08-28T00:28:23.437Z,99990.72
2022-08-28T00:31:27.070Z,99982.03
2022-08-28T00:34:33.524Z,99969.53
2022-08-28T00:37:36.183Z,99974.22
2022-08-28T00:40:41.257Z,99975.75
2022-08-28T00:43:46.187Z,99970.00
2022-08-28T00:46:51.485Z,99981.88
2022-08-28T00:49:55.825Z,99985.87
2022-08-28T00:53:01.102Z,99988.59
2022-08-28T00:56:12.886Z,99993.75
2022-08-28T00:59:19.262Z,100007.50
2022-08-28T01:02:22.202Z,100004.16
2022-08-28T01:05:26.684Z,100000.53
2022-08-28T01:08:31.275Z,100009.66
2022-08-28T01:11:34.546Z,100000.91
2022-08-28T01:14:40.374Z,100014.34
2022-08-28T01:17:47.991Z,100008.69
2022-08-28T01:21:07.038Z,100005.34
2022-08-28T01:24:14.853Z,100010.63
2022-08-28T01:27:17.828Z,100007.47
2022-08-28T01:30:22.918Z,100005.53
2022-08-28T01:33:28.224Z,100017.53
2022-08-28T01:36:31.970Z,100021.03
2022-08-28T01:39:34.548Z,100020.06
2022-08-28T01:42:42.440Z,100026.06
2022-08-28T01:45:52.812Z,100024.84
2022-08-28T01:48:55.672Z,100043.63
2022-08-28T01:51:58.724Z,100037.50
2022-08-28T01:55:02.333Z,100032.25
2022-08-28T01:58:08.531Z,100039.78
2022-08-28T02:01:14.131Z,100030.91
2022-08-28T02:04:17.317Z,100031.47
2022-08-28T02:07:19.949Z,100023.13
2022-08-28T02:10:24.710Z,100008.69
2022-08-28T02:13:27.583Z,100011.53
2022-08-28T02:16:30.886Z,100018.22
2022-08-28T02:19:33.374Z,100009.56
2022-08-28T02:22:36.559Z,100004.31
2022-08-28T02:25:39.503Z,100000.44
2022-08-28T02:28:42.699Z,99995.47
2022-08-28T02:31:45.122Z,99993.53
2022-08-28T02:34:47.990Z,99989.69
2022-08-28T02:37:51.664Z,99987.75
2022-08-28T02:40:57.857Z,99988.59
2022-08-28T02:44:00.407Z,99986.66
2022-08-28T02:47:03.857Z,100000.13
2022-08-28T02:50:08.404Z,100001.69
2022-08-28T02:53:11.937Z,99994.31
2022-08-28T02:56:14.443Z,99998.56
2022-08-28T02:59:17.200Z,99993.59
2022-08-28T03:02:19.943Z,99992.19
2022-08-28T03:05:24.864Z,100000.81
2022-08-28T03:08:28.510Z,100015.66
2022-08-28T03:11:31.872Z,100038.59
2022-08-28T03:14:34.456Z,100051.78
2022-08-28T03:17:38.329Z,100030.81
2022-08-28T03:20:41.794Z,100010.09
2022-08-28T03:23:44.605Z,100007.44
2022-08-28T03:26:48.036Z,100021.34
2022-08-28T03:29:50.847Z,100024.53
2022-08-28T03:32:54.027Z,100021.22
2022-08-28T03:35:56.860Z,100028.03
2022-08-28T03:39:01.843Z,100015.62
2022-08-28T03:42:04.793Z,100024.38
2022-08-28T03:45:11.638Z,100037.47
2022-08-28T03:48:14.476Z,100033.31
2022-08-28T03:51:22.419Z,100035.97
2022-08-28T03:54:32.690Z,100040.84
2022-08-28T03:57:35.868Z,100037.06
2022-08-28T04:00:40.473Z,100044.44
2022-08-28T04:03:44.413Z,100043.34
2022-08-28T04:06:47.057Z,100036.25
2022-08-28T04:09:50.269Z,100023.91
2022-08-28T04:12:53.692Z,100041.94
2022-08-28T04:16:10.778Z,100035.00
2022-08-28T04:19:13.672Z,100036.66
2022-08-28T04:22:16.434Z,100024.44
2022-08-28T04:25:21.842Z,100027.09
2022-08-28T04:28:25.919Z,100028.47
2022-08-28T04:31:31.391Z,100037.75
2022-08-28T04:34:37.703Z,100036.69
2022-08-28T04:37:40.683Z,100038.06
2022-08-28T04:40:44.148Z,100032.78
2022-08-28T04:43:47.419Z,100032.91
2022-08-28T04:46:50.184Z,100033.75
2022-08-28T04:49:53.155Z,100044.84
2022-08-28T04:52:55.952Z,100044.88
2022-08-28T04:56:00.645Z,100051.91
2022-08-28T04:59:04.417Z,100053.72
2022-08-28T05:02:06.989Z,100054.37
2022-08-28T05:05:10.461Z,100047.59
2022-08-28T05:08:14.675Z,100064.09
2022-08-28T05:11:33.715Z,100059.34
2022-08-28T05:14:37.716Z,100063.72
2022-08-28T05:17:40.529Z,100061.75
2022-08-28T05:20:46.039Z,100077.53
2022-08-28T05:23:51.302Z,100077.66
2022-08-28T05:26:53.820Z,100077.91
2022-08-28T05:30:01.213Z,100081.94
2022-08-28T05:33:05.101Z,100090.88
2022-08-28T05:36:08.704Z,100089.69
2022-08-28T05:39:12.143Z,100092.03
2022-08-28T05:42:14.956Z,100084.78
2022-08-28T05:45:18.155Z,100085.53
2022-08-28T05:48:21.008Z,100081.19
2022-08-28T05:51:26.871Z,100076.91
2022-08-28T05:54:30.420Z,100075.91
2022-08-28T05:57:33.026Z,100076.28
2022-08-28T06:00:35.787Z,100070.97
2022-08-28T06:03:40.204Z,100061.34
2022-08-28T06:06:43.554Z,100069.22
2022-08-28T06:09:46.619Z,100074.25
2022-08-28T06:12:49.216Z,100064.78
2022-08-28T06:15:52.475Z,100060.44
2022-08-28T06:18:56.006Z,100076.62
2022-08-28T06:22:01.071Z,100069.41
2022-08-28T06:25:14.113Z,100064.47
2022-08-28T06:28:21.372Z,100067.66
2022-08-28T06:31:26.468Z,100058.56
2022-08-28T06:34:31.366Z,100061.69
2022-08-28T06:37:33.872Z,100061.53
2022-08-28T06:40:47.860Z,100068.28
2022-08-28T06:43:50.374Z,100059.12
2022-08-28T06:46:54.891Z,100069.06
2022-08-28T06:49:57.348Z,100059.44
2022-08-28T06:53:01.338Z,100067.37
2022-08-28T06:56:07.682Z,100068.88
2022-08-28T06:59:11.950Z,100072.84
2022-08-28T07:02:14.977Z,100075.34
2022-08-28T07:05:17.993Z,100075.47
2022-08-28T07:08:20.536Z,100073.59
2022-08-28T07:11:26.989Z,100078.78
2022-08-28T07:14:29.540Z,100086.00
2022-08-28T07:17:32.626Z,100083.94
2022-08-28T07:20:35.102Z,100094.19
2022-08-28T07:23:38.644Z,100096.69
2022-08-28T07:26:42.181Z,100101.66
2022-08-28T07:29:45.094Z,100092.97
2022-08-28T07:32:49.760Z,100096.16
2022-08-28T07:35:53.493Z,100096.25
2022-08-28T07:38:57.230Z,100095.28
2022-08-28T07:42:00.322Z,100098.44
2022-08-28T07:45:03.795Z,100103.38
2022-08-28T07:48:11.268Z,100096.09
2022-08-28T07:51:14.209Z,100098.91
2022-08-28T07:54:18.061Z,100103.94
2022-08-28T07:57:21.248Z,100105.16
2022-08-28T08:00:26.016Z,100102.28
2022-08-28T08:03:30.570Z,100101.16
2022-08-28T08:06:34.613Z,100101.22
2022-08-28T08:09:40.459Z,100100.56
2022-08-28T08:12:44.400Z,100097.19
2022-08-28T08:15:47.408Z,100099.56
2022-08-28T08:18:51.198Z,100099.66
2022-08-28T08:21:55.034Z,100100.03
2022-08-28T08:24:57.981Z,100105.31
2022-08-28T08:28:00.889Z,100108.50
2022-08-28T08:31:13.755Z,100115.37
2022-08-28T08:34:16.666Z,100115.97
2022-08-28T08:37:19.402Z,100117.00
2022-08-28T08:40:22.459Z,100116.22
2022-08-28T08:43:27.298Z,100111.28
2022-08-28T08:46:51.160Z,100120.16
2022-08-28T08:50:05.183Z,100116.72
2022-08-28T08:53:48.207Z,100122.72
2022-08-28T08:56:54.835Z,100125.25
2022-08-28T08:59:57.979Z,100121.00
2022-08-28T09:03:04.743Z,100119.78
2022-08-28T09:06:20.038Z,100119.56
2022-08-28T09:09:28.787Z,100117.78
2022-08-28T09:12:44.037Z,100107.53
2022-08-28T09:15:50.643Z,100108.28
2022-08-28T09:18:56.947Z,100112.13
2022-08-28T09:21:59.461Z,100110.03
2022-08-28T09:25:02.332Z,100108.22
2022-08-28T09:28:09.593Z,100114.97
2022-08-28T09:31:31.673Z,100117.12
2022-08-28T09:34:38.853Z,100107.84
2022-08-28T09:37:42.648Z,100116.16
2022-08-28T09:41:04.311Z,100112.53
2022-08-28T09:44:07.128Z,100122.47
2022-08-28T09:47:09.611Z,100126.03
2022-08-28T09:50:29.521Z,100124.19
2022-08-28T09:53:35.961Z,100123.31
2022-08-28T09:56:42.086Z,100119.06
2022-08-28T09:59:44.654Z,100114.63
2022-08-28T10:03:03.355Z,100117.78
2022-08-28T10:06:18.618Z,100114.81
2022-08-28T10:09:29.842Z,100113.75
2022-08-28T10:12:43.071Z,100102.84
2022-08-28T10:16:24.779Z,100107.19
2022-08-28T10:19:49.955Z,100109.22
2022-08-28T10:23:33.993Z,100108.66
2022-08-28T10:26:54.367Z,100100.78
2022-08-28T10:30:13.187Z,100107.22
2022-08-28T10:33:39.824Z,100098.84
2022-08-28T10:36:49.173Z,100097.97
2022-08-28T10:39:57.714Z,100099.84
2022-08-28T10:43:13.610Z,100095.72
2022-08-28T10:46:46.116Z,100097.16
2022-08-28T10:49:52.631Z,100094.69
2022-08-28T10:53:03.853Z,100090.88
2022-08-28T10:56:56.397Z,100091.34
2022-08-28T11:00:03.760Z,100083.91
2022-08-28T11:03:32.938Z,100082.28
2022-08-28T11:06:48.093Z,100087.63
2022-08-28T11:09:50.762Z,100083.47
2022-08-28T11:12:53.626Z,100078.94
2022-08-28T11:15:56.323Z,100081.44
2022-08-28T11:19:21.038Z,100083.47
2022-08-28T11:22:28.371Z,100083.63
2022-08-28T11:25:41.644Z,100079.59
2022-08-28T11:28:47.541Z,100067.13
2022-08-28T11:32:28.803Z,100073.31
2022-08-28T11:35:50.326Z,100076.88
2022-08-28T11:38:53.572Z,100081.22
2022-08-28T11:42:11.460Z,100073.75
2022-08-28T11:45:46.623Z,100077.50
2022-08-28T11:48:53.894Z,100066.91
2022-08-28T11:52:30.509Z,100071.03
2022-08-28T11:55:50.427Z,100070.00
2022-08-28T11:58:59.692Z,100072.59
2022-08-28T12:02:39.381Z,100067.66
2022-08-28T12:05:55.740Z,100054.91
2022-08-28T12:08:58.344Z,100054.84
2022-08-28T12:12:22.251Z,100057.03
2022-08-28T12:15:27.797Z,100057.06
2022-08-28T12:18:40.435Z,100053.87
2022-08-28T12:21:43.747Z,100060.31
2022-08-28T12:24:49.723Z,100049.63
2022-08-28T12:27:53.732Z,100057.25
2022-08-28T12:31:16.143Z,100060.72
2022-08-28T12:34:39.558Z,100061.63
2022-08-28T12:37:58.511Z,100061.13
2022-08-28T12:41:02.831Z,100057.94
2022-08-28T12:44:08.982Z,100058.47
2022-08-28T12:47:16.369Z,100056.66
2022-08-28T12:50:33.555Z,100056.28
2022-08-28T12:53:42.308Z,100050.50
2022-08-28T12:56:45.203Z,100049.25
2022-08-28T12:59:50.218Z,100048.84
2022-08-28T13:02:55.590Z,100052.97
2022-08-28T13:06:07.625Z,100044.91
2022-08-28T13:09:18.416Z,100052.56
2022-08-28T13:12:34.887Z,100049.25
2022-08-28T13:16:00.852Z,100041.41
2022-08-28T13:19:06.635Z,100043.72
2022-08-28T13:22:34.896Z,100038.72
2022-08-28T13:25:38.103Z,100040.81
2022-08-28T13:28:43.838Z,100034.97
2022-08-28T13:31:59.709Z,100026.41
2022-08-28T13:35:17.759Z,100019.38
2022-08-28T13:38:24.013Z,100034.69
2022-08-28T13:41:29.766Z,100027.34
2022-08-28T13:44:52.795Z,100012.34
2022-08-28T13:47:55.613Z,100019.00
2022-08-28T13:51:07.072Z,100016.19
2022-08-28T13:54:13.486Z,100008.38
2022-08-28T13:57:16.628Z,100001.16
2022-08-28T14:00:19.661Z,100005.09
2022-08-28T14:03:41.264Z,100006.47
2022-08-28T14:06:44.468Z,100002.06
2022-08-28T14:09:47.465Z,100002.69
2022-08-28T14:12:50.044Z,100003.37
2022-08-28T14:15:54.445Z,99989.94
2022-08-28T14:18:59.465Z,99987.88
2022-08-28T14:22:02.824Z,99993.97
2022-08-28T14:25:05.972Z,99997.19
2022-08-28T14:28:09.082Z,99999.19
2022-08-28T14:31:14.594Z,99994.50
2022-08-28T14:34:21.326Z,99991.59
2022-08-28T14:37:23.820Z,100009.50
2022-08-28T14:40:26.766Z,100004.41
2022-08-28T14:43:30.243Z,100003.78
2022-08-28T14:46:36.303Z,100002.47
2022-08-28T14:49:39.388Z,100003.25
2022-08-28T14:52:42.912Z,100002.56
2022-08-28T14:55:48.349Z,100005.72
2022-08-28T14:58:51.636Z,100007.13
2022-08-28T15:02:00.010Z,100008.41
2022-08-28T15:05:02.866Z,100000.47
2022-08-28T15:08:09.586Z,100006.09
2022-08-28T15:11:18.657Z,100011.09
2022-08-28T15:14:21.352Z,100006.09
2022-08-28T15:17:34.545Z,100005.03
2022-08-28T15:20:43.582Z,99998.88
2022-08-28T15:23:49.699Z,100004.19
2022-08-28T15:26:52.933Z,100003.56
2022-08-28T15:29:55.739Z,100007.81
2022-08-28T15:32:58.444Z,100011.72
2022-08-28T15:36:01.258Z,100011.97
2022-08-28T15:39:23.930Z,100016.53
2022-08-28T15:42:26.694Z,100017.19
2022-08-28T15:45:37.402Z,100016.09
2022-08-28T15:48:40.469Z,100022.88
2022-08-28T15:51:43.218Z,100024.44
2022-08-28T15:54:47.169Z,100018.44
2022-08-28T15:57:50.246Z,100029.53
2022-08-28T16:00:53.161Z,100031.09
2022-08-28T16:03:56.081Z,100018.66
2022-08-28T16:07:00.662Z,100016.53
2022-08-28T16:10:07.173Z,100014.84
2022-08-28T16:13:09.775Z,100015.69
2022-08-28T16:16:12.900Z,100014.66
2022-08-28T16:19:15.587Z,100020.94
2022-08-28T16:22:19.050Z,100011.81
2022-08-28T16:25:21.602Z,100013.41
2022-08-28T16:28:24.544Z,99997.81
2022-08-28T16:31:29.854Z,99998.63
2022-08-28T16:34:33.499Z,100004.94
2022-08-28T16:37:39.810Z,100009.34
2022-08-28T16:40:44.861Z,100012.56
2022-08-28T16:43:48.562Z,100023.84
2022-08-28T16:46:52.681Z,100016.87
2022-08-28T16:49:59.718Z,100032.56
2022-08-28T16:53:06.323Z,100037.16
2022-08-28T16:56:11.502Z,100042.59
2022-08-28T16:59:20.435Z,100040.91
2022-08-28T17:02:27.060Z,100045.44
2022-08-28T17:05:30.104Z,100048.97
2022-08-28T17:08:32.686Z,100060.78
2022-08-28T17:11:35.961Z,100062.16
2022-08-28T17:14:38.971Z,100069.47
2022-08-28T17:17:42.932Z,100066.81
2022-08-28T17:21:04.549Z,100064.37
2022-08-28T17:24:09.672Z,100073.25
2022-08-28T17:27:12.885Z,100077.78
2022-08-28T17:30:18.203Z,100081.50
2022-08-28T17:33:20.882Z,100079.59
2022-08-28T17:36:33.161Z,100084.16
2022-08-28T17:39:37.235Z,100089.06
2022-08-28T17:42:40.639Z,100086.09
2022-08-28T17:45:43.224Z,100090.66
2022-08-28T17:48:53.611Z,100095.19
2022-08-28T17:51:58.979Z,100105.84
2022-08-28T17:55:02.406Z,100105.37
2022-08-28T17:58:05.067Z,100116.84
2022-08-28T18:01:07.975Z,100128.16
2022-08-28T18:04:12.247Z,100123.53
2022-08-28T18:07:15.238Z,100119.56
2022-08-28T18:10:18.976Z,100126.72
2022-08-28T18:13:21.545Z,100125.09
2022-08-28T18:16:31.139Z,100121.09
2022-08-28T18:19:34.260Z,100123.75
2022-08-28T18:22:38.383Z,100121.38
2022-08-28T18:25:50.468Z,100116.91
2022-08-28T18:28:54.245Z,100114.94
2022-08-28T18:31:57.250Z,100130.22
2022-08-28T18:35:00.087Z,100128.22
2022-08-28T18:38:03.481Z,100132.41
2022-08-28T18:41:08.604Z,100135.37
2022-08-28T18:44:11.720Z,100135.03
2022-08-28T18:47:14.573Z,100142.84
2022-08-28T18:50:17.414Z,100142.50
2022-08-28T18:53:22.734Z,100153.13
2022-08-28T18:56:25.243Z,100152.81
2022-08-28T18:59:33.373Z,100158.81
2022-08-28T19:02:40.784Z,100155.16
2022-08-28T19:05:44.588Z,100150.16
2022-08-28T19:08:47.098Z,100149.84
2022-08-28T19:11:50.004Z,100151.16
2022-08-28T19:14:57.559Z,100150.66
2022-08-28T19:18:01.432Z,100154.47
2022-08-28T19:21:10.150Z,100153.75
2022-08-28T19:24:18.027Z,100156.91
2022-08-28T19:27:20.698Z,100163.69
2022-08-28T19:30:23.620Z,100165.53
2022-08-28T19:33:26.348Z,100165.34
2022-08-28T19:36:30.519Z,100162.97
2022-08-28T19:39:33.199Z,100180.19
2022-08-28T19:42:36.633Z,100187.97
2022-08-28T19:45:43.707Z,100180.53
2022-08-28T19:48:48.045Z,100186.50
2022-08-28T19:51:51.125Z,100195.09
2022-08-28T19:54:54.109Z,100194.19
2022-08-28T19:57:58.392Z,100199.03
2022-08-28T20:01:01.687Z,100209.72
2022-08-28T20:04:06.849Z,100201.91
2022-08-28T20:07:09.812Z,100213.50
2022-08-28T20:10:14.698Z,100221.13
2022-08-28T20:13:17.907Z,100215.44
2022-08-28T20:16:21.462Z,100220.41
2022-08-28T20:19:24.140Z,100211.56
2022-08-28T20:22:28.088Z,100216.19
2022-08-28T20:25:31.024Z,100214.69
2022-08-28T20:28:33.973Z,100214.94
2022-08-28T20:31:42.160Z,100212.22
2022-08-28T20:34:44.973Z,100220.16
2022-08-28T20:37:47.531Z,100220.63
2022-08-28T20:40:51.130Z,100225.50
2022-08-28T20:43:53.927Z,100225.78
2022-08-28T20:46:56.781Z,100223.28
2022-08-28T20:49:59.295Z,100225.41
2022-08-28T20:53:03.868Z,100223.84
2022-08-28T20:56:09.016Z,100234.44
2022-08-28T20:59:12.707Z,100224.81
2022-08-28T21:02:18.707Z,100225.09
2022-08-28T21:05:21.639Z,100226.87
2022-08-28T21:08:24.262Z,100221.41
2022-08-28T21:11:27.683Z,100228.31
2022-08-28T21:14:30.362Z,100228.81
2022-08-28T21:17:33.170Z,100228.06
2022-08-28T21:20:36.137Z,100231.53
2022-08-28T21:23:41.281Z,100236.66
2022-08-28T21:26:46.852Z,100243.50
2022-08-28T21:29:49.842Z,100235.88
2022-08-28T21:32:52.887Z,100241.63
2022-08-28T21:35:55.834Z,100242.19
2022-08-28T21:38:58.613Z,100241.63
2022-08-28T21:42:01.358Z,100242.75
2022-08-28T21:45:11.206Z,100245.44
2022-08-28T21:48:14.987Z,100245.88
2022-08-28T21:51:19.063Z,100250.06
2022-08-28T21:54:23.114Z,100247.69
2022-08-28T21:57:25.929Z,100248.94
2022-08-28T22:00:28.711Z,100253.69
2022-08-28T22:03:31.811Z,100255.66
2022-08-28T22:06:34.610Z,100257.75
2022-08-28T22:09:38.016Z,100257.63
2022-08-28T22:12:40.634Z,100256.53
2022-08-28T22:15:45.258Z,100256.00
2022-08-28T22:18:47.897Z,100254.66
2022-08-28T22:22:09.360Z,100262.97
2022-08-28T22:25:11.998Z,100266.91
2022-08-28T22:28:14.931Z,100250.91
2022-08-28T22:31:17.616Z,100256.38
2022-08-28T22:34:20.890Z,100257.06
2022-08-28T22:37:23.694Z,100258.59
2022-08-28T22:40:27.612Z,100249.00
2022-08-28T22:43:30.165Z,100250.94
2022-08-28T22:46:32.892Z,100259.28
2022-08-28T22:49:35.950Z,100255.25
2022-08-28T22:52:45.690Z,100251.09
2022-08-28T22:55:48.302Z,100241.47
2022-08-28T22:58:51.128Z,100243.72
2022-08-28T23:01:54.612Z,100253.72
2022-08-28T23:04:57.425Z,100259.72
2022-08-28T23:07:59.945Z,100254.72
2022-08-28T23:11:06.602Z,100263.06
2022-08-28T23:14:09.282Z,100256.69
2022-08-28T23:17:12.053Z,100265.00
2022-08-28T23:20:17.951Z,100260.84
2022-08-28T23:23:21.013Z,100263.50
2022-08-28T23:26:24.887Z,100273.91
2022-08-28T23:29:27.629Z,100271.97
2022-08-28T23:32:30.105Z,100278.06
2022-08-28T23:35:33.446Z,100269.47
2022-08-28T23:38:38.432Z,100276.69
2022-08-28T23:41:43.491Z,100279.62
2022-08-28T23:44:45.974Z,100280.84
2022-08-28T23:47:48.866Z,100278.91
2022-08-28T23:50:51.383Z,100277.66
2022-08-28T23:53:54.249Z,100277.87
2022-08-28T23:56:56.894Z,100276.28
2022-08-28T23:59:59.755Z,100269.41
